Time;durP1;ratioP1;P1;durP2;ratioP2;P2;SDS_P1;SDS_P2;PMS_P1;PMS_P2;Temp;Humidity;BMP_temperature;BMP_pressure;BME280_temperature;BME280_humidity;BME280_pressure;Samples;Min_cycle;Max_cycle;Signal;HPM_P1;HPM_P2
2021/07/05 04:44:50;;;;;;;19.32;12.78;;;;;;;20.02;100.00;97939.82;1715778;78;21190;-50
2021/07/05 04:47:18;;;;;;;19.55;12.93;;;;;;;19.98;100.00;97934.79;1695571;83;21533;-51
2021/07/05 04:49:46;;;;;;;20.65;13.38;;;;;;;20.01;100.00;97930.18;1700507;83;21547;-54
2021/07/05 04:52:15;;;;;;;21.75;12.88;;;;;;;20.05;100.00;97930.41;1691713;83;21043;-45
2021/07/05 04:54:42;;;;;;;19.75;12.85;;;;;;;20.06;100.00;97924.76;1686828;84;21087;-54
2021/07/05 04:57:12;;;;;;;21.68;13.80;;;;;;;20.11;100.00;97928.69;1696269;82;21031;-43
2021/07/05 04:59:40;;;;;;;22.35;13.48;;;;;;;20.24;100.00;97917.77;1723041;83;21071;-50
2021/07/05 05:02:07;;;;;;;20.23;13.25;;;;;;;20.37;100.00;97909.55;1699560;82;21083;-55
2021/07/05 05:04:36;;;;;;;19.40;13.35;;;;;;;20.45;100.00;97924.13;1689572;83;22232;-49
2021/07/05 05:07:04;;;;;;;18.62;12.28;;;;;;;20.46;100.00;97922.52;1690315;83;21054;-46
2021/07/05 05:09:32;;;;;;;20.68;13.15;;;;;;;20.42;100.00;97926.87;1690692;83;21131;-51
2021/07/05 05:12:01;;;;;;;20.92;14.15;;;;;;;20.27;100.00;97932.47;1702060;83;21575;-52
2021/07/05 05:14:29;;;;;;;22.75;15.65;;;;;;;20.15;100.00;97928.37;1692681;82;21548;-46
2021/07/05 05:17:00;;;;;;;21.15;13.75;;;;;;;20.33;100.00;97926.73;1692333;82;21015;-58
2021/07/05 05:19:29;;;;;;;18.45;12.68;;;;;;;20.65;100.00;97921.93;1665691;83;21048;-50
2021/07/05 05:21:56;;;;;;;21.15;12.40;;;;;;;20.81;100.00;97926.44;1661397;85;21083;-49
2021/07/05 05:24:26;;;;;;;22.40;12.70;;;;;;;21.03;100.00;97919.05;1669603;83;21096;-54
2021/07/05 05:26:54;;;;;;;19.05;12.20;;;;;;;21.39;100.00;97922.38;1680955;85;21062;-45
2021/07/05 05:29:22;;;;;;;21.82;11.97;;;;;;;21.59;100.00;97931.33;1627368;83;21162;-53
2021/07/05 05:31:50;;;;;;;21.60;12.30;;;;;;;21.63;100.00;97927.51;1693640;82;21111;-47
2021/07/05 05:34:18;;;;;;;19.30;12.13;;;;;;;21.71;100.00;97924.89;1691720;84;21090;-50
2021/07/05 05:36:46;;;;;;;21.52;12.58;;;;;;;21.91;100.00;97928.22;1695871;83;21130;-51
2021/07/05 05:39:14;;;;;;;24.32;14.40;;;;;;;22.16;100.00;97927.63;1704878;83;21082;-49
2021/07/05 05:41:41;;;;;;;23.18;14.13;;;;;;;22.39;99.60;97914.98;1690350;82;21106;-50
2021/07/05 05:44:11;;;;;;;19.98;12.82;;;;;;;22.66;98.03;97920.74;1694590;82;21570;-51
2021/07/05 05:46:39;;;;;;;20.08;12.50;;;;;;;23.04;95.40;97924.30;1689851;82;21051;-50
2021/07/05 05:49:09;;;;;;;19.73;12.10;;;;;;;23.38;92.24;97926.84;1679547;82;21558;-52
2021/07/05 05:51:36;;;;;;;19.42;11.33;;;;;;;23.75;90.13;97922.81;1667895;85;21056;-46
2021/07/05 05:54:06;;;;;;;19.48;11.85;;;;;;;24.28;87.05;97932.42;1682942;83;21047;-45
2021/07/05 05:56:34;;;;;;;17.92;11.73;;;;;;;24.84;83.33;97923.83;1691194;84;21120;-50
2021/07/05 05:59:05;;;;;;;19.50;11.57;;;;;;;25.36;80.77;97920.33;1686233;83;21028;-51
2021/07/05 06:01:34;;;;;;;18.00;10.95;;;;;;;25.94;76.21;97920.56;1693460;83;21054;-48
2021/07/05 06:04:04;;;;;;;17.12;11.15;;;;;;;26.28;73.25;97922.16;1666271;84;21936;-45
2021/07/05 06:06:38;;;;;;;;;;;;;;;26.25;71.52;97920.67;1642087;86;21786;-56
2021/07/05 06:09:05;;;;;;;17.65;10.88;;;;;;;25.99;71.79;97916.88;1686100;85;20127;-48
2021/07/05 06:11:35;;;;;;;18.98;11.57;;;;;;;25.80;72.71;97922.73;1710324;82;21623;-46
2021/07/05 06:14:03;;;;;;;15.38;10.32;;;;;;;25.79;73.40;97919.24;1688607;84;21503;-46
2021/07/05 06:16:33;;;;;;;16.10;10.58;;;;;;;25.96;72.70;97921.02;1688657;84;21546;-47
2021/07/05 06:19:01;;;;;;;15.30;11.00;;;;;;;26.25;71.34;97928.20;1700779;83;21048;-50
2021/07/05 06:21:32;;;;;;;16.82;11.22;;;;;;;26.63;69.59;97926.66;1711127;81;21542;-55
2021/07/05 06:24:00;;;;;;;16.73;9.35;;;;;;;26.71;68.49;97922.27;1704084;82;21020;-50
2021/07/05 06:26:28;;;;;;;17.40;10.88;;;;;;;26.65;68.83;97926.31;1694004;82;21601;-48
2021/07/05 06:28:57;;;;;;;14.83;10.10;;;;;;;26.85;68.21;97925.45;1712197;82;21076;-52
2021/07/05 06:31:24;;;;;;;15.58;10.38;;;;;;;26.87;67.68;97923.19;1704673;83;21061;-51
2021/07/05 06:33:52;;;;;;;15.03;10.30;;;;;;;26.88;67.23;97922.62;1722929;82;21090;-52
2021/07/05 06:36:22;;;;;;;20.88;10.75;;;;;;;27.01;66.97;97925.55;1684755;81;21066;-49
2021/07/05 06:38:50;;;;;;;20.57;10.60;;;;;;;27.30;66.40;97915.64;1693649;83;21063;-55
2021/07/05 06:41:18;;;;;;;16.48;10.68;;;;;;;27.72;64.32;97922.37;1669459;84;21000;-50
2021/07/05 06:43:47;;;;;;;14.75;10.38;;;;;;;27.98;62.92;97921.14;1661168;84;21032;-53
2021/07/05 06:46:16;;;;;;;17.60;10.58;;;;;;;27.78;63.47;97926.41;1672713;82;21023;-56
2021/07/05 06:48:45;;;;;;;16.30;10.35;;;;;;;27.58;63.40;97927.32;1720435;82;20984;-47
2021/07/05 06:51:14;;;;;;;19.40;10.58;;;;;;;27.37;63.77;97930.76;1706508;83;21134;-50
2021/07/05 06:53:42;;;;;;;16.90;11.47;;;;;;;27.29;64.89;97937.06;1713291;83;20999;-48
2021/07/05 06:56:10;;;;;;;18.67;11.35;;;;;;;27.37;64.73;97936.96;1702070;83;21075;-51
2021/07/05 06:58:39;;;;;;;20.62;11.88;;;;;;;27.36;64.86;97934.60;1723015;82;21562;-53
2021/07/05 07:01:07;;;;;;;20.75;12.43;;;;;;;27.59;64.70;97934.91;1690572;82;21563;-45
2021/07/05 07:03:35;;;;;;;18.87;11.97;;;;;;;27.51;64.48;97941.44;1708239;82;21514;-50
2021/07/05 07:06:03;;;;;;;18.73;12.88;;;;;;;27.39;65.48;97940.10;1710524;82;21034;-51
2021/07/05 07:08:33;;;;;;;23.10;13.28;;;;;;;27.30;66.09;97943.52;1720797;81;20995;-53
2021/07/05 07:11:01;;;;;;;22.37;12.10;;;;;;;27.42;66.99;97935.95;1741602;81;21581;-46
2021/07/05 07:13:33;;;;;;;16.55;9.73;;;;;;;27.81;63.41;97934.39;1725426;82;21684;-48
2021/07/05 07:16:04;;;;;;;15.25;10.00;;;;;;;27.81;63.41;97934.39;1703225;83;21140;-54
2021/07/05 07:21:01;;;;;;;21.33;12.10;;;;;;;28.16;63.16;97942.76;1689665;82;21534;-53
2021/07/05 07:23:29;;;;;;;13.60;8.95;;;;;;;27.90;63.49;97936.98;1686218;83;21061;-52
2021/07/05 07:25:57;;;;;;;15.32;10.10;;;;;;;27.60;64.11;97937.83;1720745;83;21099;-56
2021/07/05 07:28:25;;;;;;;15.08;9.93;;;;;;;27.39;64.65;97937.97;1721514;82;21084;-52
2021/07/05 07:30:53;;;;;;;18.35;11.65;;;;;;;27.36;65.29;97945.42;1726426;83;21624;-54
2021/07/05 07:33:21;;;;;;;16.73;11.05;;;;;;;27.57;66.00;97938.50;1719833;83;21053;-53
2021/07/05 07:35:50;;;;;;;15.88;10.68;;;;;;;27.90;65.36;97935.63;1715924;82;21088;-56
2021/07/05 07:38:19;;;;;;;16.12;10.55;;;;;;;28.27;63.82;97938.42;1715647;83;21675;-48
2021/07/05 07:40:49;;;;;;;17.82;10.03;;;;;;;28.55;61.88;97939.73;1717103;83;21031;-52
2021/07/05 07:43:17;;;;;;;14.15;10.10;;;;;;;28.51;61.21;97926.69;1681998;83;21545;-45
2021/07/05 07:45:45;;;;;;;17.15;10.23;;;;;;;28.47;61.71;97932.57;1690501;83;21099;-48
2021/07/05 07:48:13;;;;;;;17.37;9.90;;;;;;;28.53;61.74;97928.47;1688994;84;21047;-48
2021/07/05 07:50:41;;;;;;;15.88;10.03;;;;;;;28.67;61.69;97930.74;1687970;84;21091;-50
2021/07/05 07:53:09;;;;;;;17.17;10.60;;;;;;;28.71;60.04;97934.34;1682682;85;21123;-48
2021/07/05 07:55:37;;;;;;;18.17;10.00;;;;;;;28.50;61.13;97926.47;1693526;82;21062;-48
2021/07/05 07:58:05;;;;;;;14.98;9.35;;;;;;;28.50;60.55;97935.95;1690148;83;21023;-46
2021/07/05 08:00:33;;;;;;;15.70;9.63;;;;;;;28.22;62.34;97940.59;1692475;83;21075;-49
2021/07/05 08:03:01;;;;;;;24.07;13.30;;;;;;;27.99;62.62;97934.93;1699722;83;21039;-45
2021/07/05 08:05:28;;;;;;;15.98;9.88;;;;;;;27.87;63.40;97931.70;1705192;83;21085;-53
2021/07/05 08:07:57;;;;;;;12.93;10.15;;;;;;;27.69;63.67;97935.22;1693946;84;21648;-47
2021/07/05 08:10:24;;;;;;;14.58;10.60;;;;;;;27.37;64.52;97936.17;1690830;83;21071;-55
2021/07/05 08:12:53;;;;;;;16.23;10.28;;;;;;;27.26;66.04;97926.38;1698263;83;21533;-48
2021/07/05 08:15:22;;;;;;;17.98;11.68;;;;;;;27.19;66.07;97936.41;1693240;82;21007;-50
2021/07/05 08:17:49;;;;;;;17.52;11.00;;;;;;;26.98;66.69;97942.46;1705950;82;20984;-49
2021/07/05 08:20:23;;;;;;;17.15;11.50;;;;;;;26.74;69.06;97947.28;1689308;83;21095;-51
2021/07/05 08:22:55;;;;;;;18.12;11.43;;;;;;;26.65;69.29;97945.23;1701026;84;21086;-48
2021/07/05 08:25:25;;;;;;;16.52;11.12;;;;;;;26.59;70.48;97945.22;1703683;82;21077;-49
2021/07/05 08:27:59;;;;;;;15.95;11.08;;;;;;;26.57;70.71;97950.18;1692314;83;21111;-52
2021/07/05 08:30:28;;;;;;;18.85;11.15;;;;;;;26.66;70.83;97949.51;1726381;82;21149;-54
2021/07/05 08:32:57;;;;;;;17.48;11.65;;;;;;;26.80;70.94;97951.34;1692213;83;21094;-52
2021/07/05 08:35:25;;;;;;;16.52;10.60;;;;;;;26.81;69.96;97952.92;1705345;82;21066;-49
2021/07/05 08:37:54;;;;;;;15.65;9.75;;;;;;;26.76;70.57;97940.97;1696050;83;21599;-47
2021/07/05 08:40:22;;;;;;;16.23;10.35;;;;;;;26.97;70.16;97942.23;1680908;83;21114;-40
2021/07/05 08:42:49;;;;;;;14.03;9.90;;;;;;;27.06;69.43;97951.58;1705977;82;21049;-42
2021/07/05 08:45:18;;;;;;;16.60;9.73;;;;;;;27.07;69.35;97944.53;1720756;80;21602;-50
2021/07/05 08:47:49;;;;;;;16.55;9.38;;;;;;;27.18;66.74;97944.84;1696676;82;21008;-43
2021/07/05 08:50:18;;;;;;;16.73;10.72;;;;;;;27.14;67.13;97944.75;1686810;84;21042;-52
2021/07/05 08:52:45;;;;;;;14.70;9.80;;;;;;;27.08;68.97;97943.41;1728832;82;21037;-50
2021/07/05 08:55:16;;;;;;;15.65;9.35;;;;;;;26.93;68.87;97934.00;1741318;82;20962;-52
2021/07/05 08:57:44;;;;;;;16.32;8.58;;;;;;;26.97;68.54;97934.91;1731953;81;21058;-47
2021/07/05 09:00:26;;;;;;;13.55;9.18;;;;;;;27.06;67.81;97938.88;1737943;82;20985;-46
2021/07/05 09:02:55;;;;;;;16.15;9.00;;;;;;;27.01;68.77;97922.84;1710919;81;21038;-45
2021/07/05 09:05:23;;;;;;;13.50;8.35;;;;;;;27.19;66.15;97935.06;1686598;84;21604;-52
2021/07/05 09:08:02;;;;;;;12.03;7.87;;;;;;;27.21;66.46;97927.95;1706970;83;21064;-49
2021/07/05 09:10:45;;;;;;;15.63;8.35;;;;;;;27.34;66.92;97928.16;1714244;83;20998;-53
2021/07/05 09:13:23;;;;;;;14.40;9.15;;;;;;;27.46;67.32;97925.99;1696008;83;21066;-51
2021/07/05 09:15:53;;;;;;;11.85;8.23;;;;;;;27.53;66.54;97917.55;1690441;85;21027;-41
2021/07/05 09:18:46;;;;;;;14.30;8.48;;;;;;;27.75;67.28;97927.08;1698084;83;21094;-44
2021/07/05 09:21:26;;;;;;;13.00;8.20;;;;;;;27.75;67.28;97927.08;1649579;85;21542;-43
2021/07/05 09:24:08;;;;;;;14.55;8.63;;;;;;;28.07;66.01;97938.05;1676751;85;21070;-51
2021/07/05 09:26:39;;;;;;;14.95;7.83;;;;;;;28.07;64.12;97917.73;1675027;84;21122;-53
2021/07/05 09:29:19;;;;;;;13.60;7.58;;;;;;;27.78;63.39;97937.80;1671199;85;21067;-49
2021/07/05 09:31:55;;;;;;;;;;;;;;;27.68;64.67;97929.56;1670288;85;21173;-48
2021/07/05 09:34:30;;;;;;;24.00;16.60;;;;;;;27.83;63.58;97938.92;1692739;82;20404;-48
2021/07/05 09:37:30;;;;;;;14.80;9.00;;;;;;;27.94;63.44;97941.94;1701226;83;21065;-57
2021/07/05 09:40:10;;;;;;;14.65;8.80;;;;;;;27.99;63.64;97926.23;1663935;85;21041;-43
2021/07/05 09:42:43;;;;;;;16.80;8.68;;;;;;;28.19;63.21;97944.77;1698665;83;21157;-47
2021/07/05 09:45:25;;;;;;;15.68;8.05;;;;;;;28.26;62.83;97939.53;1733222;81;20987;-51
2021/07/05 09:48:14;;;;;;;28.27;19.20;;;;;;;28.12;63.91;97920.19;1737686;82;21052;-51
2021/07/05 09:50:41;;;;;;;24.77;18.12;;;;;;;27.95;64.96;97929.97;1733989;81;21082;-50
2021/07/05 09:53:48;;;;;;;18.12;10.98;;;;;;;27.75;66.27;97929.79;1747259;82;21090;-53
2021/07/05 09:56:24;;;;;;;44.80;24.37;;;;;;;27.57;66.06;97933.08;1745094;82;21059;-50
2021/07/05 09:58:59;;;;;;;105.15;50.48;;;;;;;27.27;67.63;97930.65;1727147;82;21071;-46
2021/07/05 10:01:40;;;;;;;53.68;29.57;;;;;;;27.13;69.37;97926.16;1716089;82;21017;-48
2021/07/05 10:04:37;;;;;;;;;;;;;;;27.09;69.56;97932.02;1712619;83;21032;-51
2021/07/05 10:07:04;;;;;;;30.85;15.88;;;;;;;27.11;68.69;97933.24;1710939;83;20416;-46
2021/07/05 10:09:36;;;;;;;17.23;9.60;;;;;;;27.00;69.82;97921.27;1696505;82;21114;-50
2021/07/05 10:12:29;;;;;;;26.00;12.13;;;;;;;26.99;69.43;97921.83;1700998;83;21562;-49
2021/07/05 10:15:11;;;;;;;20.08;10.72;;;;;;;27.02;70.70;97902.80;1672790;84;21055;-48
2021/07/05 10:17:45;;;;;;;18.12;10.23;;;;;;;27.06;69.22;97896.95;1685619;85;21051;-49
2021/07/05 10:20:30;;;;;;;14.53;8.93;;;;;;;27.08;71.05;97913.65;1689529;82;21495;-49
2021/07/05 10:23:01;;;;;;;13.35;7.97;;;;;;;27.06;69.81;97910.48;1689752;83;21122;-49
2021/07/05 10:25:30;;;;;;;14.23;8.33;;;;;;;26.92;67.69;97904.60;1660428;84;21027;-48
2021/07/05 10:27:58;;;;;;;15.23;8.98;;;;;;;26.85;68.95;97911.14;1670696;85;21050;-49
2021/07/05 10:30:26;;;;;;;15.65;8.93;;;;;;;26.83;69.25;97907.97;1671528;84;21131;-48
2021/07/05 10:32:53;;;;;;;15.75;8.78;;;;;;;26.80;70.19;97902.69;1669861;83;20998;-42
2021/07/05 10:35:37;;;;;;;13.88;8.65;;;;;;;26.78;69.60;97894.11;1696859;83;21051;-47
2021/07/05 10:38:19;;;;;;;15.50;8.68;;;;;;;26.78;69.75;97886.56;1716814;83;21092;-48
2021/07/05 10:40:54;;;;;;;15.72;9.13;;;;;;;26.83;68.98;97884.98;1722085;82;21501;-47
2021/07/05 10:43:26;;;;;;;18.15;10.45;;;;;;;27.02;67.86;97884.44;1701203;83;21101;-50
2021/07/05 10:46:00;;;;;;;20.02;11.75;;;;;;;27.25;67.63;97888.28;1684380;83;21022;-54
2021/07/05 10:48:41;;;;;;;17.75;8.38;;;;;;;27.32;66.60;97872.25;1716346;82;21018;-54
2021/07/05 10:51:14;;;;;;;17.32;8.73;;;;;;;27.43;65.78;97876.06;1665644;84;21552;-58
2021/07/05 10:53:51;;;;;;;12.55;7.90;;;;;;;27.56;65.96;97876.03;1705943;83;21496;-50
2021/07/05 10:56:42;;;;;;;14.73;8.08;;;;;;;27.62;65.51;97873.30;1717764;82;22397;-54
2021/07/05 10:59:17;;;;;;;16.27;8.60;;;;;;;27.52;66.03;97876.70;1693610;83;21035;-51
2021/07/05 11:01:48;;;;;;;17.07;8.45;;;;;;;27.53;66.94;97883.71;1692149;83;21052;-48
2021/07/05 11:04:32;;;;;;;12.73;7.42;;;;;;;27.64;66.56;97891.33;1706570;84;21055;-53
2021/07/05 11:07:14;;;;;;;12.47;6.05;;;;;;;27.67;66.57;97887.38;1700009;82;21603;-53
2021/07/05 11:09:57;;;;;;;13.32;6.75;;;;;;;27.57;62.54;97909.51;1667714;84;21083;-48
2021/07/05 11:12:33;;;;;;;11.68;6.33;;;;;;;27.21;63.03;97903.60;1689970;84;21071;-51
2021/07/05 11:15:03;;;;;;;10.30;5.67;;;;;;;27.05;62.33;97901.33;1689515;83;21115;-45
2021/07/05 11:17:37;;;;;;;10.75;5.50;;;;;;;26.97;60.74;97894.35;1696665;84;21606;-49
2021/07/05 11:20:13;;;;;;;10.72;5.65;;;;;;;26.93;58.78;97897.50;1714625;82;21023;-47
2021/07/05 11:22:56;;;;;;;11.38;5.47;;;;;;;26.92;59.55;97898.63;1700345;83;21047;-51
2021/07/05 11:25:25;;;;;;;16.37;8.85;;;;;;;27.05;60.04;97895.92;1661975;85;21073;-53
2021/07/05 11:28:03;;;;;;;17.55;8.95;;;;;;;27.22;60.29;97899.20;1663505;84;21039;-45
2021/07/05 11:30:41;;;;;;;18.12;7.72;;;;;;;27.37;60.20;97902.34;1643440;85;21062;-53
2021/07/05 11:33:17;;;;;;;11.93;5.87;;;;;;;27.59;60.96;97894.30;1650988;85;21570;-48
2021/07/05 11:35:49;;;;;;;11.65;6.22;;;;;;;27.82;60.45;97897.30;1669419;83;21043;-50
2021/07/05 11:38:38;;;;;;;15.03;6.55;;;;;;;27.92;58.88;97900.28;1700668;82;21083;-48
2021/07/05 11:41:18;;;;;;;11.57;6.03;;;;;;;27.95;58.94;97908.30;1716932;82;21025;-46
2021/07/05 11:44:05;;;;;;;13.30;6.83;;;;;;;28.09;59.25;97905.19;1688737;82;21386;-49
2021/07/05 11:46:39;;;;;;;12.00;6.50;;;;;;;28.29;60.25;97897.42;1684580;83;21521;-45
2021/07/05 11:49:15;;;;;;;16.07;7.58;;;;;;;28.45;59.19;97885.28;1705711;83;21001;-49
2021/07/05 11:51:54;;;;;;;12.95;7.42;;;;;;;28.46;59.22;97871.94;1678668;82;21207;-48
2021/07/05 11:54:29;;;;;;;16.35;6.90;;;;;;;28.37;60.32;97872.09;1725805;82;21545;-50
2021/07/05 11:57:00;;;;;;;13.28;7.17;;;;;;;28.26;61.08;97886.69;1688720;83;21687;-48
2021/07/05 11:59:31;;;;;;;18.12;8.23;;;;;;;28.02;62.42;97878.70;1693324;83;21517;-48
2021/07/05 12:02:04;;;;;;;14.58;7.28;;;;;;;27.41;100.00;97874.81;1716248;82;21572;-49
2021/07/05 12:04:42;;;;;;;17.98;7.83;;;;;;;26.01;100.00;97877.61;1732992;82;21047;-44
2021/07/05 12:07:13;;;;;;;17.98;8.23;;;;;;;24.71;100.00;97872.27;1629918;87;21559;-51
2021/07/05 12:09:44;;;;;;;18.42;9.08;;;;;;;23.83;100.00;97879.74;1650630;85;21143;-50
2021/07/05 12:12:21;;;;;;;13.45;8.20;;;;;;;23.39;100.00;97884.84;1651186;85;21187;-52
2021/07/05 12:14:52;;;;;;;14.00;9.33;;;;;;;23.18;100.00;97892.73;1686803;82;21529;-54
2021/07/05 12:17:21;;;;;;;19.98;9.93;;;;;;;23.07;100.00;97896.81;1686291;85;21024;-49
2021/07/05 12:19:52;;;;;;;15.60;8.95;;;;;;;23.04;100.00;97902.24;1728066;82;21017;-55
2021/07/05 12:22:26;;;;;;;20.27;10.58;;;;;;;22.98;100.00;97903.49;1736718;82;21646;-62
2021/07/05 12:24:57;;;;;;;14.75;9.50;;;;;;;22.94;100.00;97907.92;1675491;84;21534;-49
2021/07/05 12:27:27;;;;;;;16.90;9.18;;;;;;;23.00;100.00;97906.68;1690866;84;20995;-51
2021/07/05 12:30:00;;;;;;;15.50;9.25;;;;;;;23.04;100.00;97899.55;1695519;83;21085;-51
2021/07/05 12:32:33;;;;;;;15.55;9.70;;;;;;;23.10;100.00;97905.58;1706281;83;21007;-57
2021/07/05 12:35:07;;;;;;;15.80;9.50;;;;;;;23.14;100.00;97907.89;1692803;82;21091;-52
2021/07/05 12:37:50;;;;;;;17.73;9.70;;;;;;;23.21;100.00;97903.40;1697343;82;21117;-44
2021/07/05 12:40:30;;;;;;;15.68;9.43;;;;;;;23.32;100.00;97904.69;1691661;83;21039;-50
2021/07/05 12:43:07;;;;;;;14.43;9.30;;;;;;;23.45;100.00;97906.98;1701738;82;21128;-49
2021/07/05 12:45:54;;;;;;;14.28;9.60;;;;;;;23.63;100.00;97917.24;1689253;83;21055;-46
2021/07/05 12:48:24;;;;;;;15.55;9.25;;;;;;;23.83;100.00;97906.65;1662235;84;21605;-49
2021/07/05 12:51:00;;;;;;;13.98;8.83;;;;;;;24.01;100.00;97902.05;1660075;83;22300;-47
2021/07/05 12:53:41;;;;;;;18.35;8.55;;;;;;;24.15;100.00;97899.20;1668783;83;21063;-48
2021/07/05 12:56:12;;;;;;;;;;;;;;;24.24;100.00;97889.18;1729855;82;21643;-48
2021/07/05 12:58:54;;;;;;;17.10;8.25;;;;;;;24.31;100.00;97888.13;1726954;82;20119;-52
2021/07/05 13:01:37;;;;;;;15.93;7.37;;;;;;;24.41;100.00;97886.24;1713048;82;21115;-54
2021/07/05 13:04:19;;;;;;;16.93;8.25;;;;;;;24.50;100.00;97874.90;1688549;83;21051;-56
2021/07/05 13:07:02;;;;;;;15.83;8.15;;;;;;;24.59;100.00;97862.16;1689817;82;21582;-52
2021/07/05 13:09:33;;;;;;;16.65;8.75;;;;;;;24.70;100.00;97849.92;1690399;83;21555;-50
2021/07/05 13:12:06;;;;;;;16.07;8.10;;;;;;;24.75;100.00;97862.42;1693246;83;21538;-46
2021/07/05 13:14:42;;;;;;;11.63;7.22;;;;;;;24.69;98.57;97875.28;1704130;82;21539;-54
2021/07/05 13:17:12;;;;;;;11.95;6.85;;;;;;;24.54;95.64;97879.30;1687665;84;21154;-51
2021/07/05 13:19:42;;;;;;;17.70;8.23;;;;;;;24.42;97.27;97920.14;1682993;83;21795;-44
2021/07/05 13:22:26;;;;;;;19.12;5.92;;;;;;;24.27;100.00;97973.94;1689726;84;21072;-46
2021/07/05 13:25:00;;;;;;;15.95;5.35;;;;;;;23.52;100.00;97960.58;1697715;83;21035;-46
2021/07/05 13:27:31;;;;;;;15.90;5.92;;;;;;;21.60;100.00;97934.80;1708712;82;21038;-52
2021/07/05 13:30:00;;;;;;;19.95;7.58;;;;;;;20.46;100.00;97917.17;1687554;84;21544;-48
2021/07/05 13:32:30;;;;;;;14.70;7.10;;;;;;;19.80;100.00;97931.59;1720318;83;21025;-47
2021/07/05 13:35:12;;;;;;;15.58;8.40;;;;;;;19.61;100.00;97951.63;1708859;83;21550;-45
2021/07/05 13:37:45;;;;;;;18.87;10.40;;;;;;;19.51;100.00;97935.17;1716464;82;21033;-58
2021/07/05 13:40:15;;;;;;;18.67;12.10;;;;;;;19.50;100.00;97940.27;1722307;83;21038;-51
2021/07/05 13:42:48;;;;;;;17.55;8.63;;;;;;;19.57;100.00;97949.27;1722666;82;21145;-48
2021/07/05 13:45:24;;;;;;;16.48;8.23;;;;;;;19.61;100.00;97936.41;1721145;83;21026;-55
2021/07/05 13:48:06;;;;;;;13.78;7.20;;;;;;;19.65;100.00;97933.94;1720314;83;21568;-46
2021/07/05 13:50:42;;;;;;;16.25;8.55;;;;;;;19.64;100.00;97941.70;1686637;83;21039;-51
2021/07/05 13:53:28;;;;;;;16.17;8.30;;;;;;;19.66;100.00;97942.74;1690809;85;21034;-62
2021/07/05 13:56:07;;;;;;;11.57;6.60;;;;;;;19.79;100.00;97933.48;1731511;81;21109;-52
2021/07/05 13:58:53;;;;;;;13.98;7.33;;;;;;;19.83;100.00;97930.45;1712192;81;21506;-54
